createdAt,value
2023-04-16T00:01:13.202Z,2.40
2023-04-16T00:03:45.578Z,2.70
2023-04-16T00:06:17.730Z,2.50
2023-04-16T00:08:50.498Z,2.40
2023-04-16T00:11:22.489Z,2.40
2023-04-16T00:13:54.627Z,1.80
2023-04-16T00:16:29.188Z,2.40
2023-04-16T00:19:04.224Z,2.40
2023-04-16T00:21:36.262Z,2.70
2023-04-16T00:24:08.631Z,2.10
2023-04-16T00:26:41.218Z,1.90
2023-04-16T00:29:14.302Z,2.80
2023-04-16T00:31:46.449Z,2.60
2023-04-16T00:34:19.334Z,2.50
2023-04-16T00:36:51.606Z,2.80
2023-04-16T00:39:23.870Z,2.20
2023-04-16T00:41:57.884Z,3.20
2023-04-16T00:44:31.482Z,2.90
2023-04-16T00:47:05.008Z,3.60
2023-04-16T00:49:37.969Z,3.30
2023-04-16T00:52:12.300Z,2.90
2023-04-16T00:54:45.003Z,2.50
2023-04-16T00:57:21.107Z,3.20
2023-04-16T00:59:54.433Z,3.20
2023-04-16T01:02:29.877Z,2.50
2023-04-16T01:05:03.384Z,2.40
2023-04-16T01:07:35.955Z,2.50
2023-04-16T01:10:10.776Z,2.50
2023-04-16T01:12:43.261Z,2.80
2023-04-16T01:15:16.282Z,2.60
2023-04-16T01:17:49.910Z,3.10
2023-04-16T01:20:22.561Z,3.30
2023-04-16T01:22:55.214Z,2.90
2023-04-16T01:25:29.160Z,3.00
2023-04-16T01:28:01.679Z,3.00
2023-04-16T01:30:34.178Z,2.90
2023-04-16T01:33:18.200Z,2.80
2023-04-16T01:35:53.386Z,2.80
2023-04-16T01:38:28.230Z,3.00
2023-04-16T01:41:00.873Z,3.00
2023-04-16T01:43:33.107Z,2.70
2023-04-16T01:46:19.937Z,2.70
2023-04-16T01:48:54.914Z,2.50
2023-04-16T01:51:27.751Z,2.70
2023-04-16T01:54:01.474Z,2.80
2023-04-16T01:56:33.471Z,2.90
2023-04-16T01:59:05.797Z,2.50
2023-04-16T02:01:42.861Z,2.30
2023-04-16T02:04:15.850Z,2.80
2023-04-16T02:06:49.198Z,2.90
2023-04-16T02:09:21.586Z,2.70
2023-04-16T02:11:54.532Z,3.60
2023-04-16T02:14:29.286Z,3.00
2023-04-16T02:17:02.392Z,3.30
2023-04-16T02:19:48.577Z,3.00
2023-04-16T02:22:24.317Z,3.10
2023-04-16T02:25:09.766Z,2.70
2023-04-16T02:27:42.235Z,2.30
2023-04-16T02:30:28.012Z,3.80
2023-04-16T02:33:00.610Z,4.10
2023-04-16T02:35:33.699Z,3.40
2023-04-16T02:38:07.376Z,3.30
2023-04-16T02:40:40.323Z,3.60
2023-04-16T02:43:14.741Z,3.30
2023-04-16T02:45:50.879Z,3.60
2023-04-16T02:48:23.235Z,2.80
2023-04-16T02:50:55.914Z,3.60
2023-04-16T02:53:28.900Z,2.80
2023-04-16T02:56:01.350Z,4.20
2023-04-16T02:58:33.796Z,3.00
2023-04-16T03:01:06.529Z,3.50
2023-04-16T03:03:39.002Z,3.70
2023-04-16T03:06:11.844Z,3.60
2023-04-16T03:08:44.366Z,4.50
2023-04-16T03:11:17.026Z,4.80
2023-04-16T03:13:52.013Z,4.80
2023-04-16T03:16:24.280Z,6.10
2023-04-16T03:18:59.093Z,6.30
2023-04-16T03:21:32.691Z,5.70
2023-04-16T03:24:05.238Z,4.90
2023-04-16T03:26:37.743Z,6.00
2023-04-16T03:29:13.021Z,6.50
2023-04-16T03:31:45.861Z,6.00
2023-04-16T03:34:18.330Z,6.40
2023-04-16T03:36:51.197Z,6.00
2023-04-16T03:39:23.598Z,5.80
2023-04-16T03:41:55.931Z,6.20
2023-04-16T03:44:30.442Z,4.30
2023-04-16T03:47:02.956Z,4.70
2023-04-16T03:49:35.081Z,4.50
2023-04-16T03:52:07.739Z,5.10
2023-04-16T03:54:40.133Z,5.50
2023-04-16T03:57:22.497Z,5.70
2023-04-16T03:59:54.892Z,5.40
2023-04-16T04:02:28.453Z,5.30
2023-04-16T04:05:01.224Z,4.90
2023-04-16T04:07:34.149Z,6.30
2023-04-16T04:10:07.024Z,5.60
2023-04-16T04:12:41.652Z,4.90
2023-04-16T04:15:15.653Z,5.00
2023-04-16T04:17:47.984Z,5.60
2023-04-16T04:20:20.454Z,5.40
2023-04-16T04:22:53.397Z,5.20
2023-04-16T04:25:28.800Z,5.00
2023-04-16T04:28:01.110Z,5.00
2023-04-16T04:30:35.922Z,4.40
2023-04-16T04:33:08.747Z,4.50
2023-04-16T04:35:44.417Z,3.60
2023-04-16T04:38:20.018Z,5.00
2023-04-16T04:40:54.800Z,5.40
2023-04-16T04:43:31.294Z,4.80
2023-04-16T04:46:03.561Z,5.10
2023-04-16T04:48:36.579Z,6.00
2023-04-16T04:51:11.020Z,5.20
2023-04-16T04:53:43.291Z,5.40
2023-04-16T04:56:15.558Z,5.00
2023-04-16T04:58:47.763Z,5.60
2023-04-16T05:01:19.915Z,5.60
2023-04-16T05:03:52.874Z,4.90
2023-04-16T05:06:25.760Z,5.60
2023-04-16T05:08:59.046Z,5.30
2023-04-16T05:11:34.524Z,5.00
2023-04-16T05:14:06.801Z,5.30
2023-04-16T05:16:39.887Z,5.30
2023-04-16T05:19:12.287Z,4.80
2023-04-16T05:21:44.627Z,4.50
2023-04-16T05:24:16.819Z,5.70
2023-04-16T05:26:51.666Z,5.50
2023-04-16T05:29:23.971Z,4.70
2023-04-16T05:31:56.262Z,3.90
2023-04-16T05:34:31.248Z,5.40
2023-04-16T05:37:05.912Z,5.00
2023-04-16T05:39:38.363Z,5.40
2023-04-16T05:42:10.787Z,5.40
2023-04-16T05:44:43.064Z,5.40
2023-04-16T05:47:16.053Z,5.40
2023-04-16T05:49:51.360Z,5.70
2023-04-16T05:52:23.543Z,5.30
2023-04-16T05:54:55.821Z,4.50
2023-04-16T05:57:28.467Z,4.90
2023-04-16T06:00:00.711Z,5.80
2023-04-16T06:02:33.698Z,5.20
2023-04-16T06:05:06.711Z,4.90
2023-04-16T06:07:39.197Z,4.70
2023-04-16T06:10:15.037Z,4.90
2023-04-16T06:12:47.132Z,5.40
2023-04-16T06:15:19.373Z,4.60
2023-04-16T06:17:52.838Z,5.10
2023-04-16T06:20:31.402Z,5.40
2023-04-16T06:25:34.216Z,4.40
2023-04-16T06:28:06.548Z,5.60
2023-04-16T06:30:38.952Z,5.90
2023-04-16T06:33:13.820Z,5.60
2023-04-16T06:35:46.180Z,5.40
2023-04-16T06:38:18.529Z,6.10
2023-04-16T06:40:51.099Z,5.00
2023-04-16T06:43:23.904Z,4.90
2023-04-16T06:45:59.005Z,4.40
2023-04-16T06:48:31.620Z,4.60
2023-04-16T06:51:03.805Z,5.00
2023-04-16T06:53:37.802Z,4.50
2023-04-16T06:56:11.398Z,4.80
2023-04-16T06:58:43.488Z,4.70
2023-04-16T07:01:17.944Z,4.70
2023-04-16T07:03:50.550Z,4.10
2023-04-16T07:06:23.494Z,4.40
2023-04-16T07:08:56.047Z,5.10
2023-04-16T07:11:31.395Z,4.70
2023-04-16T07:14:03.617Z,4.60
2023-04-16T07:16:37.971Z,5.90
2023-04-16T07:19:11.671Z,5.10
2023-04-16T07:21:43.922Z,4.10
2023-04-16T07:24:17.305Z,5.10
2023-04-16T07:26:49.200Z,4.90
2023-04-16T07:29:21.282Z,3.20
2023-04-16T07:31:54.265Z,4.10
2023-04-16T07:34:27.228Z,4.80
2023-04-16T07:36:59.343Z,4.50
2023-04-16T07:39:32.919Z,4.20
2023-04-16T07:42:05.264Z,4.80
2023-04-16T07:44:37.851Z,5.00
2023-04-16T07:47:10.202Z,5.10
2023-04-16T07:49:42.634Z,4.70
2023-04-16T07:52:14.962Z,3.90
2023-04-16T07:54:47.390Z,5.20
2023-04-16T07:57:20.574Z,3.90
2023-04-16T07:59:52.732Z,5.30
2023-04-16T08:02:24.891Z,4.80
2023-04-16T08:04:57.882Z,5.00
2023-04-16T08:07:34.465Z,4.40
2023-04-16T08:10:09.656Z,4.40
2023-04-16T08:12:41.926Z,4.40
2023-04-16T08:15:14.503Z,5.00
2023-04-16T08:17:47.138Z,4.40
2023-04-16T08:20:19.903Z,4.30
2023-04-16T08:22:52.439Z,3.90
2023-04-16T08:25:25.032Z,4.00
2023-04-16T08:27:57.954Z,4.00
2023-04-16T08:30:33.391Z,4.30
2023-04-16T08:33:05.504Z,4.30
2023-04-16T08:35:38.134Z,4.90
2023-04-16T08:38:16.822Z,5.80
2023-04-16T08:40:50.856Z,3.90
2023-04-16T08:43:31.412Z,5.10
2023-04-16T08:46:05.065Z,4.70
2023-04-16T08:48:38.437Z,4.60
2023-04-16T08:51:13.362Z,4.90
2023-04-16T08:53:54.738Z,4.80
2023-04-16T08:56:30.046Z,3.80
2023-04-16T08:59:05.741Z,4.80
2023-04-16T09:01:41.806Z,4.80
2023-04-16T09:04:15.422Z,4.20
2023-04-16T09:06:49.776Z,4.50
2023-04-16T09:09:24.150Z,4.30
2023-04-16T09:11:59.765Z,4.40
2023-04-16T09:14:43.384Z,5.20
2023-04-16T09:17:17.303Z,5.00
2023-04-16T09:19:50.079Z,4.70
2023-04-16T09:22:23.373Z,4.70
2023-04-16T09:24:56.243Z,5.00
2023-04-16T09:27:29.706Z,4.80
2023-04-16T09:30:02.336Z,5.40
2023-04-16T09:32:34.610Z,4.50
2023-04-16T09:35:11.377Z,5.50
2023-04-16T09:37:44.252Z,5.30
2023-04-16T09:40:25.701Z,5.10
2023-04-16T09:43:01.907Z,4.40
2023-04-16T09:45:52.166Z,4.70
2023-04-16T09:48:34.919Z,4.90
2023-04-16T09:51:09.578Z,5.20
2023-04-16T09:53:42.280Z,4.60
2023-04-16T09:56:16.675Z,5.70
2023-04-16T09:58:49.579Z,5.70
2023-04-16T10:01:22.359Z,5.60
2023-04-16T10:03:57.226Z,5.10
2023-04-16T10:06:32.056Z,4.70
2023-04-16T10:09:08.548Z,5.20
2023-04-16T10:11:42.557Z,5.70
2023-04-16T10:14:14.785Z,5.40
2023-04-16T10:16:48.021Z,4.70
2023-04-16T10:19:20.914Z,5.00
2023-04-16T10:21:53.898Z,4.80
2023-04-16T10:24:27.492Z,4.20
2023-04-16T10:27:00.552Z,4.70
2023-04-16T10:29:34.082Z,5.10
2023-04-16T10:32:07.379Z,5.90
2023-04-16T10:34:40.619Z,5.10
2023-04-16T10:37:12.715Z,5.20
2023-04-16T10:39:45.104Z,5.60
2023-04-16T10:42:17.401Z,5.50
2023-04-16T10:44:49.854Z,5.10
2023-04-16T10:47:26.331Z,5.60
2023-04-16T10:49:59.387Z,5.00
2023-04-16T10:52:32.456Z,4.70
2023-04-16T10:55:04.672Z,4.20
2023-04-16T10:57:37.178Z,4.90
2023-04-16T11:00:24.804Z,5.20
2023-04-16T11:02:57.506Z,4.60
2023-04-16T11:05:47.960Z,5.50
2023-04-16T11:08:20.236Z,5.20
2023-04-16T11:10:52.649Z,5.80
2023-04-16T11:13:25.413Z,5.50
2023-04-16T11:16:00.758Z,5.30
2023-04-16T11:18:33.096Z,5.60
2023-04-16T11:21:08.907Z,5.40
2023-04-16T11:23:54.873Z,5.30
2023-04-16T11:26:32.334Z,5.30
2023-04-16T11:29:15.896Z,5.40
2023-04-16T11:31:54.382Z,5.00
2023-04-16T11:34:27.572Z,4.60
2023-04-16T11:37:01.906Z,4.40
2023-04-16T11:39:35.528Z,5.10
2023-04-16T11:42:07.809Z,4.90
2023-04-16T11:44:40.142Z,5.10
2023-04-16T11:47:14.124Z,5.30
2023-04-16T11:49:48.572Z,5.40
2023-04-16T11:52:31.090Z,5.30
2023-04-16T11:55:03.879Z,4.50
2023-04-16T11:57:36.275Z,5.10
2023-04-16T12:00:13.985Z,4.90
2023-04-16T12:02:48.027Z,4.90
2023-04-16T12:05:35.123Z,4.60
2023-04-16T12:08:10.999Z,4.70
2023-04-16T12:10:58.250Z,5.20
2023-04-16T12:13:30.758Z,6.00
2023-04-16T12:16:03.175Z,6.10
2023-04-16T12:18:38.133Z,6.00
2023-04-16T12:21:10.410Z,6.10
2023-04-16T12:23:42.779Z,5.10
2023-04-16T12:26:17.175Z,5.10
2023-04-16T12:28:49.466Z,5.20
2023-04-16T12:31:39.558Z,5.20
2023-04-16T12:34:16.709Z,7.10
2023-04-16T12:36:49.809Z,5.60
2023-04-16T12:39:22.752Z,5.90
2023-04-16T12:41:55.908Z,6.00
2023-04-16T12:44:33.166Z,6.00
2023-04-16T12:47:05.854Z,7.10
2023-04-16T12:49:38.558Z,5.70
2023-04-16T12:52:10.636Z,6.20
2023-04-16T12:54:42.959Z,6.00
2023-04-16T12:57:15.213Z,5.50
2023-04-16T12:59:47.852Z,5.50
2023-04-16T13:02:20.604Z,5.00
2023-04-16T13:04:53.279Z,5.20
2023-04-16T13:07:27.638Z,5.20
2023-04-16T13:10:00.817Z,4.80
2023-04-16T13:12:33.001Z,6.40
2023-04-16T13:15:05.708Z,5.10
2023-04-16T13:17:38.232Z,5.50
2023-04-16T13:20:13.126Z,4.60
2023-04-16T13:22:49.956Z,5.80
2023-04-16T13:25:22.122Z,5.30
2023-04-16T13:27:54.303Z,5.40
2023-04-16T13:30:33.702Z,5.90
2023-04-16T13:33:06.173Z,6.10
2023-04-16T13:35:38.161Z,4.90
2023-04-16T13:38:12.862Z,5.80
2023-04-16T13:40:45.684Z,5.20
2023-04-16T13:43:19.112Z,5.60
2023-04-16T13:45:51.165Z,4.60
2023-04-16T13:48:23.507Z,5.60
2023-04-16T13:50:56.198Z,5.60
2023-04-16T13:53:30.860Z,5.80
2023-04-16T13:56:04.245Z,6.90
2023-04-16T13:58:36.304Z,6.30
2023-04-16T14:01:08.395Z,6.20
2023-04-16T14:03:42.214Z,6.60
2023-04-16T14:06:15.144Z,5.80
2023-04-16T14:08:47.300Z,7.40
2023-04-16T14:11:19.812Z,6.70
2023-04-16T14:13:52.048Z,6.20
2023-04-16T14:16:24.127Z,6.10
2023-04-16T14:18:57.113Z,6.30
2023-04-16T14:21:29.820Z,6.90
2023-04-16T14:24:06.291Z,6.30
2023-04-16T14:26:38.494Z,5.60
2023-04-16T14:29:11.006Z,6.70
2023-04-16T14:31:43.114Z,6.20
2023-04-16T14:34:15.331Z,6.00
2023-04-16T14:36:49.311Z,6.00
2023-04-16T14:39:21.676Z,6.40
2023-04-16T14:41:53.549Z,6.80
2023-04-16T14:44:27.606Z,6.10
2023-04-16T14:46:59.501Z,6.50
2023-04-16T14:49:32.371Z,6.10
2023-04-16T14:52:05.843Z,5.80
2023-04-16T14:54:39.373Z,6.10
2023-04-16T14:57:11.331Z,5.70
2023-04-16T14:59:43.675Z,5.10
2023-04-16T15:02:16.310Z,5.60
2023-04-16T15:04:48.831Z,6.40
2023-04-16T15:07:21.385Z,5.60
2023-04-16T15:09:54.132Z,6.50
2023-04-16T15:12:26.948Z,5.40
2023-04-16T15:15:00.064Z,5.30
2023-04-16T15:17:32.189Z,6.10
2023-04-16T15:20:08.267Z,5.60
2023-04-16T15:22:41.227Z,4.70
2023-04-16T15:25:14.634Z,5.00
2023-04-16T15:27:46.584Z,5.80
2023-04-16T15:30:19.108Z,5.90
2023-04-16T15:32:52.063Z,5.60
2023-04-16T15:35:27.036Z,6.10
2023-04-16T15:37:59.145Z,4.80
2023-04-16T15:40:31.410Z,5.60
2023-04-16T15:43:04.268Z,4.70
2023-04-16T15:45:37.610Z,5.80
2023-04-16T15:48:10.036Z,5.60
2023-04-16T15:50:42.205Z,5.30
2023-04-16T15:53:14.256Z,5.40
2023-04-16T15:55:50.550Z,5.40
2023-04-16T15:58:23.212Z,5.10
2023-04-16T16:00:55.767Z,4.20
2023-04-16T16:03:30.145Z,5.50
2023-04-16T16:06:04.149Z,5.60
2023-04-16T16:08:39.580Z,5.10
2023-04-16T16:11:14.196Z,6.00
2023-04-16T16:13:46.355Z,5.50
2023-04-16T16:16:20.306Z,4.70
2023-04-16T16:18:52.328Z,5.20
2023-04-16T16:21:24.821Z,5.40
2023-04-16T16:23:59.233Z,4.60
2023-04-16T16:26:32.665Z,5.30
2023-04-16T16:29:05.034Z,5.40
2023-04-16T16:31:47.397Z,5.10
2023-04-16T16:34:23.177Z,5.20
2023-04-16T16:37:05.831Z,5.70
2023-04-16T16:39:49.467Z,4.90
2023-04-16T16:42:24.311Z,5.20
2023-04-16T16:45:02.889Z,4.50
2023-04-16T16:50:36.135Z,5.10
2023-04-16T16:53:09.409Z,5.10
2023-04-16T16:55:45.161Z,5.60
2023-04-16T16:58:18.929Z,5.50
2023-04-16T17:00:59.097Z,5.40
2023-04-16T17:03:38.794Z,6.70
2023-04-16T17:06:19.897Z,5.90
2023-04-16T17:08:55.200Z,7.80
2023-04-16T17:11:29.697Z,6.50
2023-04-16T17:14:07.708Z,5.80
2023-04-16T17:16:40.932Z,5.60
2023-04-16T17:19:17.604Z,5.60
2023-04-16T17:21:53.917Z,5.40
2023-04-16T17:24:31.938Z,5.90
2023-04-16T17:27:11.014Z,5.10
2023-04-16T17:29:46.258Z,5.80
2023-04-16T17:32:18.811Z,5.30
2023-04-16T17:34:51.852Z,5.50
2023-04-16T17:37:25.051Z,5.80
2023-04-16T17:39:57.649Z,5.10
2023-04-16T17:42:29.736Z,6.40
2023-04-16T17:45:02.304Z,5.50
2023-04-16T17:47:35.414Z,5.00
2023-04-16T17:50:10.198Z,5.40
2023-04-16T17:52:43.114Z,6.10
2023-04-16T17:55:19.023Z,6.10
2023-04-16T17:57:51.405Z,5.90
2023-04-16T18:00:31.585Z,6.00
2023-04-16T18:03:04.372Z,6.40
2023-04-16T18:05:36.869Z,6.20
2023-04-16T18:08:11.460Z,6.70
2023-04-16T18:10:44.094Z,6.60
2023-04-16T18:13:16.706Z,6.10
2023-04-16T18:15:49.117Z,5.40
2023-04-16T18:18:21.862Z,6.50
2023-04-16T18:20:59.143Z,6.10
2023-04-16T18:23:32.438Z,6.10
2023-04-16T18:26:08.317Z,6.50
2023-04-16T18:28:42.452Z,5.50
2023-04-16T18:31:15.220Z,5.80
2023-04-16T18:33:56.521Z,6.00
2023-04-16T18:36:33.871Z,6.40
2023-04-16T18:39:08.393Z,5.40
2023-04-16T18:41:42.449Z,4.80
2023-04-16T18:44:15.119Z,6.30
2023-04-16T18:46:49.813Z,7.10
2023-04-16T18:49:22.160Z,6.60
2023-04-16T18:51:59.145Z,6.80
2023-04-16T18:54:32.528Z,7.70
2023-04-16T18:57:04.937Z,6.50
2023-04-16T18:59:37.937Z,7.20
2023-04-16T19:02:11.412Z,6.90
2023-04-16T19:04:45.702Z,5.50
2023-04-16T19:07:19.642Z,7.00
2023-04-16T19:09:52.891Z,7.70
2023-04-16T19:12:28.390Z,6.50
2023-04-16T19:15:03.041Z,7.20
2023-04-16T19:17:36.827Z,6.00
2023-04-16T19:20:12.787Z,6.40
2023-04-16T19:22:45.165Z,7.00
2023-04-16T19:25:17.277Z,6.30
2023-04-16T19:27:49.545Z,6.90
2023-04-16T19:30:25.077Z,7.20
2023-04-16T19:33:02.053Z,6.90
2023-04-16T19:35:37.144Z,5.90
2023-04-16T19:38:10.962Z,4.80
2023-04-16T19:40:47.120Z,6.10
2023-04-16T19:43:19.523Z,5.70
2023-04-16T19:45:53.782Z,5.80
2023-04-16T19:48:28.918Z,5.30
2023-04-16T19:51:05.818Z,6.40
2023-04-16T19:53:38.507Z,6.90
2023-04-16T19:56:14.078Z,7.40
2023-04-16T19:58:46.469Z,8.00
2023-04-16T20:01:18.729Z,7.80
2023-04-16T20:03:51.429Z,6.60
2023-04-16T20:06:24.357Z,6.70
2023-04-16T20:08:57.965Z,6.70
2023-04-16T20:11:32.780Z,7.60
2023-04-16T20:14:05.787Z,6.00
2023-04-16T20:16:41.282Z,5.90
2023-04-16T20:19:17.205Z,6.30
2023-04-16T20:21:49.380Z,7.60
2023-04-16T20:24:24.303Z,7.20
2023-04-16T20:26:56.616Z,7.50
2023-04-16T20:29:31.848Z,8.00
2023-04-16T20:32:03.911Z,7.60
2023-04-16T20:34:39.034Z,7.60
2023-04-16T20:37:11.250Z,8.20
2023-04-16T20:39:45.215Z,9.00
2023-04-16T20:42:18.067Z,8.30
2023-04-16T20:44:55.850Z,8.40
2023-04-16T20:47:28.910Z,8.50
2023-04-16T20:50:01.839Z,6.40
2023-04-16T20:52:34.493Z,7.20
2023-04-16T20:55:08.162Z,7.30
2023-04-16T20:57:43.314Z,6.00
2023-04-16T21:00:24.114Z,4.90
2023-04-16T21:02:56.361Z,6.70
2023-04-16T21:05:33.584Z,7.00
2023-04-16T21:08:06.147Z,6.90
2023-04-16T21:10:40.724Z,8.60
2023-04-16T21:13:13.061Z,7.90
2023-04-16T21:15:46.688Z,8.50
2023-04-16T21:18:19.478Z,8.60
2023-04-16T21:20:51.709Z,8.90
2023-04-16T21:23:23.894Z,8.60
2023-04-16T21:25:57.994Z,8.80
2023-04-16T21:28:33.318Z,8.40
2023-04-16T21:31:05.815Z,5.60
2023-04-16T21:33:39.094Z,6.30
2023-04-16T21:36:11.998Z,6.90
2023-04-16T21:38:46.379Z,7.40
2023-04-16T21:41:18.680Z,6.30
2023-04-16T21:43:50.738Z,7.00
2023-04-16T21:46:23.175Z,7.70
2023-04-16T21:48:55.280Z,8.10
2023-04-16T21:51:30.061Z,8.10
2023-04-16T21:54:02.082Z,9.10
2023-04-16T21:56:34.754Z,8.10
2023-04-16T21:59:06.881Z,7.60
2023-04-16T22:01:39.226Z,8.50
2023-04-16T22:04:12.661Z,9.20
2023-04-16T22:06:46.395Z,6.90
2023-04-16T22:09:18.472Z,8.60
2023-04-16T22:11:50.537Z,8.60
2023-04-16T22:14:22.595Z,9.20
2023-04-16T22:16:59.740Z,7.50
2023-04-16T22:19:35.016Z,7.30
2023-04-16T22:22:09.846Z,6.60
2023-04-16T22:24:42.003Z,7.70
2023-04-16T22:27:15.639Z,8.10
2023-04-16T22:29:48.032Z,8.20
2023-04-16T22:32:20.549Z,9.80
2023-04-16T22:34:54.916Z,9.40
2023-04-16T22:37:29.551Z,8.60
2023-04-16T22:40:01.649Z,9.50
2023-04-16T22:42:33.893Z,9.30
2023-04-16T22:45:08.972Z,9.50
2023-04-16T22:47:41.832Z,9.30
2023-04-16T22:50:14.207Z,9.60
2023-04-16T22:52:46.308Z,9.50
2023-04-16T22:55:18.250Z,9.70
2023-04-16T22:57:50.371Z,9.90
2023-04-16T23:00:22.743Z,9.70
2023-04-16T23:02:54.853Z,9.50
2023-04-16T23:05:29.708Z,9.20
2023-04-16T23:08:02.329Z,9.30
2023-04-16T23:10:34.320Z,9.00
2023-04-16T23:13:06.560Z,8.70
2023-04-16T23:15:38.778Z,9.00
2023-04-16T23:18:11.000Z,10.20
2023-04-16T23:20:44.810Z,9.60
2023-04-16T23:23:16.903Z,9.50
2023-04-16T23:25:49.035Z,10.80
2023-04-16T23:28:24.014Z,10.80
2023-04-16T23:30:56.120Z,9.70
2023-04-16T23:33:35.734Z,10.30
2023-04-16T23:36:12.836Z,10.10
2023-04-16T23:38:44.918Z,8.90
2023-04-16T23:41:16.972Z,8.90
2023-04-16T23:43:50.581Z,10.10
2023-04-16T23:46:22.702Z,10.60
2023-04-16T23:48:55.494Z,10.40
2023-04-16T23:51:30.732Z,9.50
2023-04-16T23:56:36.426Z,9.90
2023-04-16T23:59:11.294Z,9.40
